Time;durP1;ratioP1;P1;durP2;ratioP2;P2;SDS_P1;SDS_P2;PMS_P1;PMS_P2;Temp;Humidity;BMP_temperature;BMP_pressure;BME280_temperature;BME280_humidity;BME280_pressure;Samples;Min_cycle;Max_cycle;Signal;HPM_P1;HPM_P2
2023/08/24 00:02:03;;;;;;;4.50;2.00;;;15.70;99.90;;;;;;5089941;28;20094;-75
2023/08/24 00:04:29;;;;;;;7.90;2.10;;;15.70;99.90;;;;;;5090467;28;20098;-75
2023/08/24 00:06:55;;;;;;;10.88;3.10;;;15.70;99.90;;;;;;5089598;28;20055;-74
2023/08/24 00:09:21;;;;;;;6.85;2.50;;;15.70;99.90;;;;;;5090466;28;20070;-74
2023/08/24 00:11:47;;;;;;;9.73;3.33;;;15.60;99.90;;;;;;5091048;28;20024;-73
2023/08/24 00:14:13;;;;;;;6.53;2.20;;;15.70;99.90;;;;;;5089664;28;20032;-73
2023/08/24 00:16:38;;;;;;;7.60;2.13;;;15.70;99.90;;;;;;5089604;28;20035;-75
2023/08/24 00:19:04;;;;;;;8.95;2.38;;;15.70;99.90;;;;;;5089552;28;20024;-74
2023/08/24 00:21:30;;;;;;;6.10;2.58;;;15.60;99.90;;;;;;5090358;28;20146;-74
2023/08/24 00:23:56;;;;;;;13.27;2.67;;;15.60;99.90;;;;;;5089619;28;20031;-74
2023/08/24 00:26:23;;;;;;;8.50;2.63;;;15.70;99.90;;;;;;5089935;28;20031;-74
2023/08/24 00:28:49;;;;;;;7.60;2.35;;;15.60;99.90;;;;;;5089699;28;20016;-73
2023/08/24 00:31:17;;;;;;;8.07;2.30;;;15.50;99.90;;;;;;5091325;28;20500;-74
2023/08/24 00:33:43;;;;;;;7.30;2.58;;;15.50;99.90;;;;;;5093539;28;20038;-74
2023/08/24 00:36:09;;;;;;;7.88;2.47;;;15.60;99.90;;;;;;5075055;28;20765;-74
2023/08/24 00:38:34;;;;;;;5.65;2.63;;;15.60;99.90;;;;;;5093382;28;20089;-74
2023/08/24 00:41:00;;;;;;;4.97;2.13;;;15.50;99.90;;;;;;5093310;28;20479;-74
2023/08/24 00:43:27;;;;;;;7.18;2.72;;;15.50;99.90;;;;;;5093711;28;20024;-74
2023/08/24 00:45:56;;;;;;;9.27;2.67;;;15.50;99.90;;;;;;5093296;28;20024;-76
2023/08/24 00:48:25;;;;;;;9.07;3.28;;;15.50;99.90;;;;;;5093634;28;20115;-74
2023/08/24 00:50:55;;;;;;;7.35;2.58;;;15.40;99.90;;;;;;5093524;28;20024;-77
2023/08/24 00:53:24;;;;;;;6.90;2.42;;;15.40;99.90;;;;;;5093874;28;20400;-74
2023/08/24 00:55:50;;;;;;;9.35;2.53;;;15.40;99.90;;;;;;5093874;28;20453;-74
2023/08/24 00:58:17;;;;;;;10.75;3.10;;;15.40;99.90;;;;;;5092851;28;20088;-75
2023/08/24 01:00:43;;;;;;;9.55;2.90;;;15.40;99.90;;;;;;5093567;28;20024;-74
2023/08/24 01:03:09;;;;;;;8.40;3.00;;;15.40;99.90;;;;;;5092649;28;20032;-73
2023/08/24 01:05:35;;;;;;;6.35;3.30;;;15.40;99.90;;;;;;5093363;28;20032;-73
2023/08/24 01:08:00;;;;;;;9.35;2.60;;;15.30;99.90;;;;;;5092435;28;20328;-74
2023/08/24 01:10:47;;;;;;;6.28;3.20;;;15.20;99.90;;;;;;5093575;28;20028;-73
2023/08/24 01:13:21;;;;;;;8.93;3.10;;;15.30;99.90;;;;;;5077229;28;20189;-74
2023/08/24 01:16:00;;;;;;;5.15;2.58;;;15.20;99.90;;;;;;5093813;28;20538;-74
2023/08/24 01:18:26;;;;;;;7.50;2.70;;;15.20;99.90;;;;;;5093347;28;20020;-73
2023/08/24 01:20:54;;;;;;;7.40;2.05;;;15.20;99.90;;;;;;5092890;28;20333;-76
2023/08/24 01:23:41;;;;;;;15.95;3.13;;;15.20;99.90;;;;;;5092693;28;20511;-74
2023/08/24 01:26:27;;;;;;;7.00;2.58;;;15.20;99.90;;;;;;5092438;28;20032;-74
2023/08/24 01:28:53;;;;;;;8.13;2.53;;;15.30;99.90;;;;;;5092718;28;20366;-75
2023/08/24 01:31:19;;;;;;;6.78;2.38;;;15.30;99.90;;;;;;5092823;28;20414;-74
2023/08/24 01:33:45;;;;;;;8.25;2.38;;;15.30;99.90;;;;;;5092474;28;20053;-74
2023/08/24 01:36:13;;;;;;;6.35;2.42;;;15.30;99.90;;;;;;5092184;28;20028;-73
2023/08/24 01:38:40;;;;;;;7.00;2.25;;;15.30;99.90;;;;;;5092585;28;20024;-74
2023/08/24 01:41:25;;;;;;;11.18;2.38;;;15.30;99.90;;;;;;5091885;28;20434;-74
2023/08/24 01:43:53;;;;;;;5.90;2.30;;;15.30;99.90;;;;;;5069849;28;20063;-74
2023/08/24 01:46:22;;;;;;;8.00;2.70;;;15.30;99.90;;;;;;5072034;28;20086;-74
2023/08/24 01:48:48;;;;;;;8.82;2.30;;;15.30;99.90;;;;;;5071790;28;20039;-74
2023/08/24 01:51:16;;;;;;;7.90;2.17;;;15.30;99.90;;;;;;5071673;28;20093;-74
2023/08/24 01:53:42;;;;;;;6.78;2.60;;;15.30;99.90;;;;;;5072156;28;20024;-74
2023/08/24 01:56:10;;;;;;;4.97;2.10;;;15.30;99.90;;;;;;5070574;28;20020;-74
2023/08/24 01:58:35;;;;;;;8.30;2.42;;;15.30;99.90;;;;;;5072355;28;20033;-75
2023/08/24 02:01:01;;;;;;;6.03;2.30;;;15.30;99.90;;;;;;5071844;28;20111;-74
2023/08/24 02:03:27;;;;;;;7.00;2.15;;;15.30;99.90;;;;;;5072340;28;20162;-73
2023/08/24 02:05:53;;;;;;;7.05;2.15;;;15.30;99.90;;;;;;5072159;28;20029;-73
2023/08/24 02:08:18;;;;;;;7.75;2.58;;;15.20;99.90;;;;;;5071091;28;20029;-74
2023/08/24 02:10:44;;;;;;;6.88;2.25;;;15.20;99.90;;;;;;5071847;28;20476;-73
2023/08/24 02:13:10;;;;;;;6.05;2.30;;;15.10;99.90;;;;;;5071532;28;20156;-73
2023/08/24 02:15:38;;;;;;;5.22;2.40;;;15.10;99.90;;;;;;5071614;28;20349;-74
2023/08/24 02:18:04;;;;;;;5.13;2.08;;;15.10;99.90;;;;;;5071145;28;20024;-74
2023/08/24 02:20:30;;;;;;;7.40;2.25;;;15.10;99.90;;;;;;5071502;28;20067;-74
2023/08/24 02:22:55;;;;;;;5.75;2.30;;;15.10;99.90;;;;;;5070109;28;20056;-74
2023/08/24 02:25:21;;;;;;;9.05;2.75;;;15.10;99.90;;;;;;5070873;28;20032;-75
2023/08/24 02:27:48;;;;;;;5.32;2.28;;;15.10;99.90;;;;;;5071257;28;20105;-74
2023/08/24 02:30:14;;;;;;;7.55;2.38;;;15.10;99.90;;;;;;5070994;28;20032;-74
2023/08/24 02:32:40;;;;;;;6.00;2.40;;;15.10;99.90;;;;;;5071156;28;20074;-74
2023/08/24 02:35:06;;;;;;;5.95;2.78;;;15.10;99.90;;;;;;5070484;28;20058;-75
2023/08/24 02:37:32;;;;;;;8.75;2.53;;;15.00;99.90;;;;;;5071172;28;20021;-74
2023/08/24 02:39:57;;;;;;;7.10;2.60;;;14.90;99.90;;;;;;5070655;28;20390;-77
2023/08/24 02:42:23;;;;;;;9.93;3.47;;;15.00;99.90;;;;;;5071050;28;20028;-73
2023/08/24 02:44:49;;;;;;;8.18;2.60;;;15.00;99.90;;;;;;5084806;28;20048;-73
2023/08/24 02:47:15;;;;;;;5.53;2.50;;;14.90;99.90;;;;;;5090616;28;20493;-74
2023/08/24 02:49:41;;;;;;;5.97;2.58;;;14.90;99.90;;;;;;5091076;28;20031;-73
2023/08/24 02:52:07;;;;;;;6.35;2.38;;;14.90;99.90;;;;;;5090438;28;20020;-73
2023/08/24 02:54:32;;;;;;;6.13;2.60;;;14.90;99.90;;;;;;5090588;28;20469;-73
2023/08/24 02:56:58;;;;;;;7.93;2.33;;;14.90;99.90;;;;;;5091321;28;20047;-74
2023/08/24 02:59:24;;;;;;;3.53;2.50;;;14.80;99.90;;;;;;5090648;28;20035;-74
2023/08/24 03:01:49;;;;;;;4.40;2.53;;;14.80;99.90;;;;;;5090963;28;20043;-74
2023/08/24 03:04:15;;;;;;;9.38;2.78;;;14.80;99.90;;;;;;5090629;28;20044;-75
2023/08/24 03:06:44;;;;;;;4.45;2.20;;;14.90;99.90;;;;;;5091015;28;20042;-74
2023/08/24 03:09:09;;;;;;;7.50;2.60;;;14.90;99.90;;;;;;5090141;28;20039;-74
2023/08/24 03:11:35;;;;;;;5.93;2.53;;;14.90;99.90;;;;;;5091179;28;20028;-74
2023/08/24 03:14:01;;;;;;;3.38;2.15;;;14.90;99.90;;;;;;5090641;28;20123;-77
2023/08/24 03:16:27;;;;;;;6.72;2.50;;;14.90;99.90;;;;;;5090911;28;20055;-74
2023/08/24 03:18:52;;;;;;;7.15;2.35;;;14.90;99.90;;;;;;5071982;28;20069;-74
2023/08/24 03:21:18;;;;;;;5.13;2.25;;;14.90;99.90;;;;;;5090209;28;20025;-75
2023/08/24 03:23:44;;;;;;;8.88;2.40;;;14.90;99.90;;;;;;5090365;28;20134;-74
2023/08/24 03:26:10;;;;;;;5.55;2.38;;;14.80;99.90;;;;;;5090004;28;20028;-73
2023/08/24 03:28:35;;;;;;;8.80;2.45;;;14.80;99.90;;;;;;5090728;28;20377;-74
2023/08/24 03:31:01;;;;;;;8.25;2.53;;;14.80;99.90;;;;;;5090382;28;20465;-76
2023/08/24 03:33:27;;;;;;;6.75;2.50;;;14.80;99.90;;;;;;5090323;28;20247;-74
2023/08/24 03:35:53;;;;;;;7.38;2.30;;;14.80;99.90;;;;;;5090435;28;20028;-74
2023/08/24 03:38:19;;;;;;;8.20;2.88;;;14.80;99.90;;;;;;5089885;28;20032;-74
2023/08/24 03:40:45;;;;;;;4.03;1.80;;;14.70;99.90;;;;;;5090657;28;20090;-74
2023/08/24 03:43:11;;;;;;;3.85;2.00;;;14.70;99.90;;;;;;5089988;28;20075;-74
2023/08/24 03:45:37;;;;;;;5.57;2.38;;;14.60;99.90;;;;;;5071974;28;20444;-74
2023/08/24 03:48:02;;;;;;;5.95;2.50;;;14.60;99.90;;;;;;5090518;28;20027;-77
2023/08/24 03:50:28;;;;;;;6.78;2.38;;;14.60;99.90;;;;;;5090220;28;20025;-74
2023/08/24 03:52:54;;;;;;;6.60;2.50;;;14.50;99.90;;;;;;5090798;28;20048;-74
2023/08/24 03:55:21;;;;;;;9.35;3.05;;;14.50;99.90;;;;;;5089661;28;20564;-74
2023/08/24 03:57:47;;;;;;;7.32;2.53;;;14.40;99.90;;;;;;5090077;28;20024;-74
2023/08/24 04:00:14;;;;;;;5.97;2.38;;;14.40;99.90;;;;;;5090078;28;20485;-74
2023/08/24 04:02:41;;;;;;;6.07;2.40;;;14.40;99.90;;;;;;5090429;28;20508;-74
2023/08/24 04:05:07;;;;;;;6.95;2.70;;;14.40;99.90;;;;;;5071320;28;20032;-74
2023/08/24 04:07:36;;;;;;;6.50;2.70;;;14.30;99.90;;;;;;5094084;28;20024;-74
2023/08/24 04:10:05;;;;;;;5.25;2.55;;;14.30;99.90;;;;;;5094878;28;20073;-74
2023/08/24 04:12:31;;;;;;;5.47;2.53;;;14.30;99.90;;;;;;5094652;28;20029;-74
2023/08/24 04:14:57;;;;;;;5.88;2.60;;;14.20;99.90;;;;;;5094675;28;20437;-75
2023/08/24 04:17:23;;;;;;;6.90;2.92;;;14.20;99.90;;;;;;5093573;28;20036;-74
2023/08/24 04:19:49;;;;;;;5.88;2.40;;;14.20;99.90;;;;;;5094066;28;20622;-74
2023/08/24 04:22:15;;;;;;;6.28;2.92;;;14.10;99.90;;;;;;5093232;28;20075;-74
2023/08/24 04:24:41;;;;;;;6.47;2.60;;;14.00;99.90;;;;;;5093678;28;20035;-74
2023/08/24 04:27:07;;;;;;;4.40;2.00;;;14.00;99.90;;;;;;5093255;28;20028;-76
2023/08/24 04:29:33;;;;;;;4.32;2.40;;;13.90;99.90;;;;;;5093599;28;20030;-76
2023/08/24 04:31:59;;;;;;;8.30;3.17;;;14.00;99.90;;;;;;5075631;28;20032;-74
2023/08/24 04:34:24;;;;;;;6.18;2.72;;;13.90;99.90;;;;;;5093393;28;20034;-73
2023/08/24 04:36:50;;;;;;;3.90;2.63;;;13.80;99.90;;;;;;5093342;28;20414;-73
2023/08/24 04:39:18;;;;;;;7.95;3.05;;;13.80;99.90;;;;;;5093370;28;20032;-73
2023/08/24 04:41:44;;;;;;;9.70;2.85;;;13.80;99.90;;;;;;5093401;28;20408;-73
2023/08/24 04:44:10;;;;;;;8.93;2.67;;;13.70;99.90;;;;;;5092413;28;20157;-74
2023/08/24 04:46:35;;;;;;;6.00;2.70;;;13.60;99.90;;;;;;5058508;28;20034;-74
2023/08/24 04:49:01;;;;;;;7.15;2.75;;;13.60;99.90;;;;;;5093467;28;20055;-73
2023/08/24 04:51:27;;;;;;;7.95;2.95;;;13.60;99.90;;;;;;5092404;28;20621;-73
2023/08/24 04:53:54;;;;;;;9.05;3.28;;;13.60;99.90;;;;;;5093346;28;20069;-73
2023/08/24 04:56:19;;;;;;;7.25;3.22;;;13.50;99.90;;;;;;5092647;28;20398;-74
2023/08/24 04:59:00;;;;;;;6.95;2.70;;;13.50;99.90;;;;;;5093474;28;20058;-73
2023/08/24 05:01:26;;;;;;;6.78;2.65;;;13.50;99.90;;;;;;5092696;28;20431;-73
2023/08/24 05:03:53;;;;;;;7.57;2.95;;;13.50;99.90;;;;;;5093111;28;20118;-73
2023/08/24 05:06:20;;;;;;;9.10;3.20;;;13.40;99.90;;;;;;5092652;28;20031;-74
2023/08/24 05:08:45;;;;;;;13.25;3.67;;;13.40;99.90;;;;;;5092840;28;20032;-74
2023/08/24 05:11:18;;;;;;;9.32;3.67;;;13.40;99.90;;;;;;5092685;28;20073;-74
2023/08/24 05:13:44;;;;;;;7.88;3.30;;;13.30;99.90;;;;;;5093193;28;20032;-74
2023/08/24 05:16:10;;;;;;;7.57;2.95;;;13.30;99.90;;;;;;5091943;28;20032;-77
2023/08/24 05:18:36;;;;;;;5.05;2.42;;;13.30;99.90;;;;;;5074637;28;20031;-74
2023/08/24 05:21:03;;;;;;;11.48;3.97;;;13.30;99.90;;;;;;5093085;28;20032;-74
2023/08/24 05:23:29;;;;;;;5.88;3.53;;;13.20;99.90;;;;;;5092250;28;20028;-74
2023/08/24 05:25:57;;;;;;;8.35;3.75;;;13.10;99.90;;;;;;5058438;28;20567;-74
2023/08/24 05:28:24;;;;;;;8.45;3.03;;;13.10;99.90;;;;;;5092263;28;20028;-74
2023/08/24 05:30:54;;;;;;;10.57;3.22;;;13.10;99.90;;;;;;5093109;28;20063;-74
2023/08/24 05:33:21;;;;;;;10.55;3.53;;;13.00;99.90;;;;;;5092637;28;20028;-74
2023/08/24 05:35:48;;;;;;;7.53;3.25;;;13.00;99.90;;;;;;5092677;28;20059;-74
2023/08/24 05:38:14;;;;;;;6.25;2.88;;;13.10;99.90;;;;;;5091898;28;20409;-74
2023/08/24 05:40:42;;;;;;;9.55;3.60;;;13.10;99.90;;;;;;5092759;28;20035;-74
2023/08/24 05:43:09;;;;;;;8.05;3.03;;;13.10;99.90;;;;;;5091800;28;20059;-74
2023/08/24 05:45:35;;;;;;;7.95;3.63;;;13.10;99.90;;;;;;5091770;28;20106;-74
2023/08/24 05:48:01;;;;;;;7.32;3.10;;;13.10;99.90;;;;;;5092081;28;20093;-73
2023/08/24 05:50:26;;;;;;;8.02;2.92;;;13.20;99.90;;;;;;5092066;28;20040;-74
2023/08/24 05:52:52;;;;;;;8.48;3.25;;;13.20;99.90;;;;;;5091934;28;20024;-73
2023/08/24 05:55:18;;;;;;;3.75;2.65;;;13.30;99.90;;;;;;5091548;28;20101;-72
2023/08/24 05:57:44;;;;;;;8.88;2.92;;;13.40;99.90;;;;;;5092523;28;20346;-73
2023/08/24 06:00:10;;;;;;;7.30;3.17;;;13.40;99.90;;;;;;5092362;28;20456;-73
2023/08/24 06:02:36;;;;;;;6.07;3.13;;;13.40;99.90;;;;;;5091450;28;20476;-73
2023/08/24 06:05:03;;;;;;;10.27;3.40;;;13.40;99.90;;;;;;5091797;28;20115;-73
2023/08/24 06:07:29;;;;;;;7.75;3.50;;;13.50;99.90;;;;;;5091294;28;20031;-73
2023/08/24 06:09:56;;;;;;;7.07;3.28;;;13.70;99.90;;;;;;5092226;28;20062;-72
2023/08/24 06:12:22;;;;;;;8.40;3.15;;;13.70;99.90;;;;;;5091435;28;20063;-74
2023/08/24 06:14:48;;;;;;;7.90;3.40;;;13.80;99.90;;;;;;5092334;28;20059;-73
2023/08/24 06:17:13;;;;;;;10.27;3.13;;;13.80;99.90;;;;;;5091755;28;20375;-76
2023/08/24 06:19:39;;;;;;;9.60;3.47;;;13.90;99.90;;;;;;5091941;28;20024;-73
2023/08/24 06:22:05;;;;;;;6.03;3.47;;;14.10;99.90;;;;;;5073864;28;20028;-74
2023/08/24 06:24:31;;;;;;;7.55;3.38;;;14.10;99.90;;;;;;5091424;28;20028;-74
2023/08/24 06:26:57;;;;;;;5.18;3.22;;;14.20;99.90;;;;;;5091845;28;20028;-74
2023/08/24 06:29:22;;;;;;;5.05;3.10;;;14.30;99.90;;;;;;5090508;28;20028;-74
2023/08/24 06:31:48;;;;;;;8.90;3.03;;;14.40;99.90;;;;;;5091414;28;20495;-73
2023/08/24 06:34:14;;;;;;;11.43;3.20;;;14.40;99.90;;;;;;5072544;28;20028;-77
2023/08/24 06:36:40;;;;;;;19.00;3.90;;;14.50;99.90;;;;;;5091181;28;20143;-74
2023/08/24 06:39:05;;;;;;;8.73;3.47;;;14.60;99.90;;;;;;5073394;28;20533;-74
2023/08/24 06:41:37;;;;;;;6.43;2.90;;;14.70;99.90;;;;;;5091263;28;20032;-75
2023/08/24 06:44:03;;;;;;;7.10;3.28;;;14.80;99.90;;;;;;5091142;28;20166;-73
2023/08/24 06:46:29;;;;;;;7.68;3.42;;;14.90;99.90;;;;;;5090452;28;20102;-74
2023/08/24 06:48:55;;;;;;;7.82;3.40;;;14.90;99.90;;;;;;5091668;28;20024;-74
2023/08/24 06:51:20;;;;;;;6.25;2.85;;;15.00;99.90;;;;;;5090453;28;20358;-74
2023/08/24 06:53:48;;;;;;;4.85;2.75;;;15.00;99.90;;;;;;5090825;28;20032;-73
2023/08/24 06:56:20;;;;;;;4.50;2.78;;;15.10;99.90;;;;;;5091325;28;20020;-73
2023/08/24 06:58:47;;;;;;;8.87;3.10;;;15.20;99.90;;;;;;5090611;28;20507;-74
2023/08/24 07:01:13;;;;;;;5.63;3.00;;;15.30;99.90;;;;;;5090990;28;20026;-73
2023/08/24 07:03:39;;;;;;;9.98;3.38;;;15.50;99.90;;;;;;5090403;28;20020;-74
2023/08/24 07:06:07;;;;;;;7.80;3.53;;;15.60;99.90;;;;;;5091057;28;20457;-74
2023/08/24 07:08:34;;;;;;;7.88;3.65;;;15.70;99.90;;;;;;5090416;28;20085;-74
2023/08/24 07:11:00;;;;;;;7.45;4.30;;;15.70;99.90;;;;;;5091359;28;20024;-74
2023/08/24 07:13:27;;;;;;;12.82;5.47;;;15.80;99.90;;;;;;5089625;28;20114;-73
2023/08/24 07:15:52;;;;;;;11.40;5.75;;;15.70;99.90;;;;;;5091025;28;20028;-74
2023/08/24 07:18:18;;;;;;;14.70;6.90;;;15.60;99.90;;;;;;5090506;28;20070;-76
2023/08/24 07:20:44;;;;;;;12.98;6.45;;;15.70;99.90;;;;;;5090787;28;20388;-73
2023/08/24 07:23:09;;;;;;;13.70;6.13;;;15.70;99.90;;;;;;5072388;28;20062;-74
2023/08/24 07:25:35;;;;;;;13.15;6.40;;;15.70;99.90;;;;;;5089800;28;20032;-74
2023/08/24 07:28:03;;;;;;;11.63;5.20;;;15.80;99.90;;;;;;5090516;28;20085;-74
2023/08/24 07:30:29;;;;;;;10.85;5.97;;;15.90;99.90;;;;;;5089713;28;20516;-74
2023/08/24 07:32:55;;;;;;;12.50;6.05;;;15.90;99.90;;;;;;5089353;28;20149;-75
2023/08/24 07:35:24;;;;;;;9.32;4.53;;;15.90;99.90;;;;;;5089283;28;20488;-75
2023/08/24 07:37:51;;;;;;;10.43;5.15;;;16.00;99.90;;;;;;5090030;28;20459;-75
2023/08/24 07:40:16;;;;;;;7.95;4.22;;;16.10;99.90;;;;;;5071594;28;20039;-73
2023/08/24 07:42:46;;;;;;;9.98;4.80;;;16.10;99.90;;;;;;5090379;28;20321;-73
2023/08/24 07:45:14;;;;;;;10.43;4.78;;;16.10;99.90;;;;;;5089761;28;20184;-74
2023/08/24 07:47:40;;;;;;;6.40;4.03;;;16.10;99.90;;;;;;5072070;28;20540;-74
2023/08/24 07:50:07;;;;;;;9.40;4.40;;;16.10;99.90;;;;;;5090300;28;20032;-74
2023/08/24 07:52:33;;;;;;;9.48;4.30;;;16.20;99.90;;;;;;5089991;28;20070;-74
2023/08/24 07:55:00;;;;;;;7.75;4.07;;;16.30;99.90;;;;;;5090185;28;20104;-73
2023/08/24 07:57:26;;;;;;;8.23;3.50;;;16.30;99.90;;;;;;5089691;28;20135;-74
2023/08/24 07:59:52;;;;;;;7.60;3.50;;;16.40;99.90;;;;;;5090163;28;20020;-75
2023/08/24 08:02:18;;;;;;;6.88;3.30;;;16.40;99.90;;;;;;5090398;28;20539;-74
2023/08/24 08:04:44;;;;;;;5.45;3.10;;;16.50;99.90;;;;;;5089517;28;20036;-74
2023/08/24 08:07:10;;;;;;;8.43;3.20;;;16.50;99.90;;;;;;5090495;28;20024;-74
2023/08/24 08:09:38;;;;;;;6.97;3.15;;;16.60;99.90;;;;;;5090144;28;20461;-73
2023/08/24 08:12:04;;;;;;;7.72;3.25;;;16.60;99.90;;;;;;5090464;28;20107;-73
2023/08/24 08:14:30;;;;;;;7.22;3.33;;;16.60;99.90;;;;;;5089484;28;20051;-74
2023/08/24 08:16:56;;;;;;;6.65;2.88;;;16.70;99.90;;;;;;5090039;28;20024;-74
2023/08/24 08:19:25;;;;;;;7.25;3.17;;;16.80;99.90;;;;;;5089867;28;20020;-76
2023/08/24 08:21:51;;;;;;;5.18;2.45;;;16.90;99.90;;;;;;5090244;28;20020;-73
2023/08/24 08:24:16;;;;;;;9.75;2.55;;;17.00;99.90;;;;;;5090142;28;20032;-74
2023/08/24 08:26:42;;;;;;;4.88;1.90;;;17.00;99.90;;;;;;5089511;28;20023;-74
2023/08/24 08:29:08;;;;;;;10.45;2.55;;;17.00;99.90;;;;;;5090475;28;20024;-74
2023/08/24 08:31:33;;;;;;;6.57;2.30;;;16.90;99.90;;;;;;5089710;28;20044;-74
2023/08/24 08:33:59;;;;;;;7.65;2.03;;;17.00;99.90;;;;;;5090284;28;20028;-74
2023/08/24 08:36:25;;;;;;;6.55;1.70;;;16.90;99.90;;;;;;5089833;28;20345;-75
2023/08/24 08:38:51;;;;;;;6.05;2.10;;;16.80;99.90;;;;;;5071734;28;20045;-74
2023/08/24 08:41:20;;;;;;;6.70;1.55;;;16.70;99.90;;;;;;5089843;28;20051;-73
2023/08/24 08:43:47;;;;;;;7.50;1.73;;;16.80;99.90;;;;;;5089348;28;20131;-75
2023/08/24 08:46:15;;;;;;;4.53;1.52;;;16.70;99.90;;;;;;5089831;28;20020;-73
2023/08/24 08:48:41;;;;;;;4.35;1.40;;;16.80;99.90;;;;;;5089515;28;20028;-75
2023/08/24 08:51:09;;;;;;;4.72;1.70;;;16.90;99.90;;;;;;5089735;28;20016;-74
2023/08/24 08:53:35;;;;;;;5.45;1.40;;;16.90;99.90;;;;;;5093244;28;20024;-74
2023/08/24 08:56:04;;;;;;;2.95;1.40;;;16.90;99.90;;;;;;5093498;28;20032;-74
2023/08/24 08:58:31;;;;;;;9.00;1.70;;;16.70;99.90;;;;;;5092835;28;20036;-74
2023/08/24 09:00:59;;;;;;;5.30;1.75;;;16.80;99.90;;;;;;5093560;28;20029;-74
2023/08/24 09:03:27;;;;;;;6.40;1.70;;;16.80;99.90;;;;;;5074583;28;20028;-76
2023/08/24 09:05:53;;;;;;;6.97;1.50;;;16.80;99.90;;;;;;5093184;28;20130;-74
2023/08/24 09:08:19;;;;;;;7.97;1.45;;;16.90;99.90;;;;;;5093210;28;20132;-74
2023/08/24 09:10:45;;;;;;;3.22;1.13;;;17.00;99.90;;;;;;5093095;28;20067;-74
2023/08/24 09:13:12;;;;;;;5.93;1.00;;;17.20;99.90;;;;;;5093275;28;20059;-73
2023/08/24 09:15:37;;;;;;;3.28;1.23;;;17.20;99.90;;;;;;5092050;28;20105;-74
2023/08/24 09:18:04;;;;;;;4.95;0.90;;;17.20;99.90;;;;;;5092825;28;20028;-74
2023/08/24 09:20:30;;;;;;;5.75;1.17;;;17.00;99.90;;;;;;5092324;28;20063;-75
2023/08/24 09:22:57;;;;;;;4.28;1.40;;;17.10;99.90;;;;;;5074292;28;20020;-74
2023/08/24 09:25:24;;;;;;;2.25;0.80;;;17.10;99.90;;;;;;5092486;28;20032;-74
2023/08/24 09:28:08;;;;;;;3.40;0.93;;;17.30;99.90;;;;;;5074295;28;20032;-74
2023/08/24 09:30:38;;;;;;;5.95;1.15;;;17.40;99.90;;;;;;5092437;28;20480;-74
2023/08/24 09:33:08;;;;;;;2.75;0.82;;;17.50;99.90;;;;;;5092975;28;20031;-74
2023/08/24 09:35:38;;;;;;;7.30;0.98;;;17.60;99.90;;;;;;5091398;28;20465;-74
2023/08/24 09:38:20;;;;;;;5.00;1.30;;;17.50;99.90;;;;;;5092719;28;20030;-74
2023/08/24 09:40:56;;;;;;;5.10;1.05;;;17.30;99.90;;;;;;5091570;28;20024;-75
2023/08/24 09:43:23;;;;;;;5.65;0.93;;;17.40;99.90;;;;;;5092088;28;20128;-75
2023/08/24 09:45:58;;;;;;;5.97;1.05;;;17.30;99.90;;;;;;5091730;28;20028;-74
2023/08/24 09:48:24;;;;;;;3.10;0.85;;;17.30;99.90;;;;;;5092334;28;20028;-74
2023/08/24 09:50:51;;;;;;;4.70;1.20;;;17.40;99.90;;;;;;5091721;28;20032;-75
2023/08/24 09:53:22;;;;;;;2.72;1.00;;;17.50;99.90;;;;;;5092613;28;20028;-75
2023/08/24 09:56:08;;;;;;;4.13;1.00;;;17.70;99.90;;;;;;5091704;28;20097;-74
2023/08/24 09:58:34;;;;;;;5.63;1.08;;;17.80;99.90;;;;;;5092160;28;20040;-74
2023/08/24 10:01:02;;;;;;;3.03;0.80;;;17.80;99.90;;;;;;5092206;28;20059;-74
2023/08/24 10:03:30;;;;;;;2.03;0.63;;;17.80;99.90;;;;;;5092024;28;20043;-77
2023/08/24 10:06:00;;;;;;;6.60;1.08;;;17.90;99.90;;;;;;5092308;28;20097;-75
2023/08/24 10:08:50;;;;;;;6.55;1.08;;;17.80;99.90;;;;;;5092260;28;20437;-76
2023/08/24 10:11:24;;;;;;;3.80;0.93;;;17.80;99.90;;;;;;5093619;28;20047;-74
2023/08/24 10:13:55;;;;;;;5.15;1.08;;;17.90;99.90;;;;;;5092822;28;20052;-74
2023/08/24 10:16:22;;;;;;;6.22;0.98;;;17.90;99.90;;;;;;5092286;28;20110;-75
2023/08/24 10:18:51;;;;;;;2.72;1.08;;;17.90;99.90;;;;;;5092026;28;20024;-74
2023/08/24 10:21:17;;;;;;;4.00;0.77;;;17.90;99.90;;;;;;5093201;28;20465;-75
2023/08/24 10:23:45;;;;;;;3.53;0.82;;;17.90;99.90;;;;;;5092204;28;20488;-75
2023/08/24 10:26:13;;;;;;;4.10;0.90;;;18.00;99.90;;;;;;5107555;28;20165;-75
2023/08/24 10:28:39;;;;;;;3.83;1.17;;;18.10;99.90;;;;;;5094808;28;20020;-75
2023/08/24 10:31:06;;;;;;;3.45;1.02;;;18.10;99.90;;;;;;5093262;28;20030;-75
2023/08/24 10:33:36;;;;;;;2.90;0.90;;;18.20;99.90;;;;;;5091676;28;20028;-75
2023/08/24 10:36:05;;;;;;;2.63;1.00;;;18.20;99.90;;;;;;5092372;28;20028;-74
2023/08/24 10:38:36;;;;;;;3.47;0.93;;;18.40;99.90;;;;;;5091018;28;20115;-75
2023/08/24 10:41:06;;;;;;;5.07;1.38;;;18.50;99.90;;;;;;5091410;28;20103;-74
2023/08/24 10:43:37;;;;;;;3.67;0.90;;;18.70;99.90;;;;;;5090630;28;20461;-74
2023/08/24 10:46:04;;;;;;;4.68;0.70;;;18.80;99.90;;;;;;5091132;28;20093;-75
2023/08/24 10:48:49;;;;;;;4.47;1.00;;;18.80;99.90;;;;;;5090688;28;20031;-76
2023/08/24 10:51:48;;;;;;;3.53;0.93;;;18.80;99.90;;;;;;5072826;28;20044;-74
2023/08/24 10:54:07;;;;;;;3.20;1.02;;;18.90;99.90;;;;;;5085620;28;20040;-74
2023/08/24 10:56:38;;;;;;;4.10;0.90;;;18.90;99.90;;;;;;5090363;28;20020;-75
2023/08/24 10:59:12;;;;;;;5.82;0.93;;;18.90;99.90;;;;;;5091021;28;20345;-75
2023/08/24 11:01:55;;;;;;;4.22;1.02;;;18.80;99.90;;;;;;5090090;28;20322;-75
2023/08/24 11:04:22;;;;;;;3.10;0.82;;;18.80;99.90;;;;;;5072295;28;20047;-74
2023/08/24 11:06:57;;;;;;;3.25;0.70;;;18.90;99.90;;;;;;5090232;28;20107;-75
2023/08/24 11:09:23;;;;;;;4.95;0.80;;;19.00;99.90;;;;;;5073158;28;20032;-75
2023/08/24 11:12:00;;;;;;;2.65;0.70;;;19.10;99.90;;;;;;5090716;28;20024;-75
2023/08/24 11:14:29;;;;;;;3.58;0.70;;;19.30;99.90;;;;;;5072330;28;20381;-75
2023/08/24 11:16:58;;;;;;;4.88;0.98;;;19.30;99.90;;;;;;5090138;28;20027;-75
2023/08/24 11:19:25;;;;;;;5.25;0.80;;;19.10;99.90;;;;;;5090831;28;20024;-75
2023/08/24 11:21:51;;;;;;;3.38;0.82;;;18.80;99.90;;;;;;5090181;28;20608;-75
2023/08/24 11:24:17;;;;;;;2.38;0.90;;;18.70;99.90;;;;;;5090361;28;20055;-75
2023/08/24 11:26:45;;;;;;;4.07;0.80;;;18.40;99.90;;;;;;5089772;28;20038;-75
2023/08/24 11:29:11;;;;;;;2.42;0.80;;;18.20;99.90;;;;;;5090835;28;20028;-75
2023/08/24 11:31:38;;;;;;;3.08;0.70;;;18.20;99.90;;;;;;5090120;28;20092;-75
2023/08/24 11:34:05;;;;;;;2.53;0.73;;;18.40;99.90;;;;;;5090597;28;20062;-74
2023/08/24 11:36:31;;;;;;;4.07;0.68;;;18.60;99.90;;;;;;5090328;28;20032;-75
2023/08/24 11:38:59;;;;;;;5.07;0.93;;;18.70;99.90;;;;;;5090261;28;20028;-74
2023/08/24 11:41:25;;;;;;;2.40;0.80;;;18.80;99.90;;;;;;5090549;28;20024;-75
2023/08/24 11:43:59;;;;;;;2.58;0.70;;;18.70;99.90;;;;;;5089974;28;20048;-76
2023/08/24 11:46:25;;;;;;;2.13;0.47;;;18.80;99.90;;;;;;5090337;28;20433;-74
2023/08/24 11:48:51;;;;;;;4.28;0.73;;;18.90;99.90;;;;;;5089890;28;20056;-75
2023/08/24 11:51:17;;;;;;;3.25;0.57;;;19.00;99.90;;;;;;5090162;28;20542;-77
2023/08/24 11:53:44;;;;;;;1.90;0.52;;;19.20;99.90;;;;;;5089567;28;20046;-74
2023/08/24 11:56:14;;;;;;;3.10;0.50;;;19.00;99.90;;;;;;5090152;28;20028;-75
2023/08/24 11:58:47;;;;;;;2.75;0.60;;;19.00;99.90;;;;;;5089395;28;20024;-76
2023/08/24 12:01:13;;;;;;;4.93;0.45;;;18.80;99.90;;;;;;5091046;28;20174;-74
2023/08/24 12:03:39;;;;;;;1.08;0.50;;;18.90;99.90;;;;;;5090050;28;20523;-75
2023/08/24 12:06:13;;;;;;;2.15;0.50;;;19.10;99.90;;;;;;5090107;28;20109;-75
2023/08/24 12:08:45;;;;;;;3.95;0.63;;;19.00;99.90;;;;;;5089726;28;20024;-75
2023/08/24 12:11:20;;;;;;;3.17;0.60;;;18.90;99.90;;;;;;5090716;28;20115;-75
2023/08/24 12:13:50;;;;;;;2.20;0.60;;;18.70;99.90;;;;;;5089556;28;20109;-75
2023/08/24 12:16:20;;;;;;;4.10;1.20;;;18.70;99.90;;;;;;5090483;28;20220;-75
2023/08/24 12:19:07;;;;;;;3.33;0.68;;;18.60;99.90;;;;;;5089763;28;20036;-76
2023/08/24 12:21:33;;;;;;;2.33;0.50;;;18.40;99.90;;;;;;5072318;28;20024;-76
2023/08/24 12:24:05;;;;;;;1.30;0.68;;;18.40;99.90;;;;;;5089367;28;20030;-76
2023/08/24 12:26:31;;;;;;;;;;;18.50;99.90;;;;;;5091532;28;20024;-76
2023/08/24 12:29:02;;;;;;;5.88;0.85;;;18.50;99.90;;;;;;5093455;28;19904;-76
2023/08/24 12:31:29;;;;;;;4.47;0.82;;;18.70;99.90;;;;;;5094653;28;20109;-76
2023/08/24 12:34:06;;;;;;;1.73;0.47;;;19.00;99.90;;;;;;5093560;28;20024;-75
2023/08/24 12:36:35;;;;;;;2.53;0.60;;;19.10;99.90;;;;;;5094119;28;20470;-75
2023/08/24 12:39:03;;;;;;;1.50;0.50;;;19.30;99.90;;;;;;5094162;28;20028;-75
2023/08/24 12:41:29;;;;;;;1.30;0.68;;;19.30;99.90;;;;;;5093767;28;20473;-75
2023/08/24 12:43:55;;;;;;;1.63;0.40;;;19.40;99.90;;;;;;5092689;28;20050;-76
2023/08/24 12:46:20;;;;;;;2.17;0.60;;;19.60;99.90;;;;;;5093651;28;20028;-75
2023/08/24 12:48:46;;;;;;;1.88;0.45;;;19.60;99.90;;;;;;5092667;28;20024;-75